Time;durP1;ratioP1;P1;durP2;ratioP2;P2;SDS_P1;SDS_P2;PMS_P1;PMS_P2;Temp;Humidity;BMP_temperature;BMP_pressure;BME280_temperature;BME280_humidity;BME280_pressure;Samples;Min_cycle;Max_cycle;Signal;HPM_P1;HPM_P2
2023/01/08 00:00:55;;;;;;;6.93;2.28;;;10.60;99.90;;;;;;5092546;28;20385;-88
2023/01/08 00:03:21;;;;;;;5.70;2.15;;;10.50;99.90;;;;;;5076150;28;20039;-88
2023/01/08 00:05:47;;;;;;;6.00;1.83;;;10.60;99.90;;;;;;5075503;28;20034;-89
2023/01/08 00:08:12;;;;;;;5.93;2.20;;;10.60;99.90;;;;;;5093165;28;20485;-88
2023/01/08 00:10:38;;;;;;;4.85;1.98;;;10.60;99.90;;;;;;5076413;28;20035;-88
2023/01/08 00:13:05;;;;;;;6.43;2.28;;;10.60;99.90;;;;;;5080121;28;20666;-88
2023/01/08 00:15:32;;;;;;;6.03;2.38;;;10.60;99.90;;;;;;5097119;28;20122;-88
2023/01/08 00:17:58;;;;;;;5.63;2.00;;;10.60;99.90;;;;;;5079556;28;20448;-88
2023/01/08 00:20:24;;;;;;;5.93;2.22;;;10.60;99.90;;;;;;5080587;28;20430;-88
2023/01/08 00:22:50;;;;;;;6.20;1.98;;;10.60;99.90;;;;;;5095994;28;20500;-89
2023/01/08 00:25:17;;;;;;;5.80;2.17;;;10.60;99.90;;;;;;5079795;28;20060;-88
2023/01/08 00:27:44;;;;;;;5.65;1.95;;;10.60;99.90;;;;;;5097124;28;20064;-89
2023/01/08 00:30:10;;;;;;;4.85;1.98;;;10.60;99.90;;;;;;5095520;28;20039;-88
2023/01/08 00:32:36;;;;;;;7.55;2.67;;;10.60;99.90;;;;;;5079954;28;20043;-89
2023/01/08 00:35:01;;;;;;;6.85;2.20;;;10.60;99.90;;;;;;5096781;28;20452;-88
2023/01/08 00:37:27;;;;;;;5.10;2.13;;;10.60;99.90;;;;;;5095719;28;20034;-88
2023/01/08 00:39:53;;;;;;;4.95;2.10;;;10.50;99.90;;;;;;5096774;28;20050;-88
2023/01/08 00:42:19;;;;;;;6.47;2.17;;;10.50;99.90;;;;;;5079000;28;20036;-88
2023/01/08 00:44:44;;;;;;;4.90;2.08;;;10.50;99.90;;;;;;5079735;28;20043;-88
2023/01/08 00:47:10;;;;;;;6.70;2.90;;;10.50;99.90;;;;;;5079501;28;20519;-88
2023/01/08 00:49:36;;;;;;;6.45;2.33;;;10.50;99.90;;;;;;5096055;28;20420;-88
2023/01/08 00:52:01;;;;;;;6.43;2.28;;;10.50;99.90;;;;;;5079623;28;20462;-88
2023/01/08 00:54:27;;;;;;;7.80;2.38;;;10.50;99.90;;;;;;5094989;28;20115;-88
2023/01/08 00:56:56;;;;;;;5.75;2.33;;;10.50;99.90;;;;;;5096456;28;20031;-88
2023/01/08 00:59:21;;;;;;;6.80;2.22;;;10.50;99.90;;;;;;5078597;28;20504;-88
2023/01/08 01:01:47;;;;;;;6.50;2.30;;;10.50;99.90;;;;;;5096464;28;20035;-88
2023/01/08 01:04:15;;;;;;;6.32;2.35;;;10.50;99.90;;;;;;5078811;28;20378;-87
2023/01/08 01:06:41;;;;;;;7.00;2.47;;;10.50;99.90;;;;;;5096183;28;20504;-85
2023/01/08 01:09:07;;;;;;;6.88;2.33;;;10.50;99.90;;;;;;5096496;28;20036;-88
2023/01/08 01:11:33;;;;;;;6.95;2.53;;;10.50;99.90;;;;;;5095266;28;20549;-88
2023/01/08 01:13:59;;;;;;;6.07;2.38;;;10.50;99.90;;;;;;5078822;28;20047;-88
2023/01/08 01:16:25;;;;;;;6.63;2.67;;;10.50;99.90;;;;;;5078185;28;20028;-88
2023/01/08 01:18:51;;;;;;;6.45;2.42;;;10.40;99.90;;;;;;5079263;28;20036;-88
2023/01/08 01:21:30;;;;;;;5.75;2.28;;;10.40;99.90;;;;;;5095554;28;20023;-89
2023/01/08 01:23:59;;;;;;;5.78;2.13;;;10.40;99.90;;;;;;5094498;28;20043;-88
2023/01/08 01:26:31;;;;;;;6.35;2.50;;;10.40;99.90;;;;;;5079364;28;20050;-88
2023/01/08 01:28:57;;;;;;;7.55;2.50;;;10.30;99.90;;;;;;5078426;28;20042;-88
2023/01/08 01:31:25;;;;;;;6.90;1.75;;;10.30;99.90;;;;;;5078940;28;20050;-88
2023/01/08 01:33:51;;;;;;;2.88;1.08;;;10.20;99.90;;;;;;5094314;28;20485;-87
2023/01/08 01:36:19;;;;;;;4.78;1.10;;;10.10;99.90;;;;;;5078759;28;20038;-87
2023/01/08 01:38:47;;;;;;;8.57;1.30;;;10.00;99.90;;;;;;5095272;28;20035;-88
2023/01/08 01:41:24;;;;;;;3.95;0.82;;;9.90;99.90;;;;;;5094942;28;20112;-88
2023/01/08 01:43:50;;;;;;;6.20;1.20;;;9.70;99.90;;;;;;5078244;28;20039;-87
2023/01/08 01:46:25;;;;;;;4.40;0.80;;;9.60;99.90;;;;;;5077896;28;20054;-87
2023/01/08 01:48:58;;;;;;;3.05;0.63;;;9.50;99.90;;;;;;5095826;28;20400;-87
2023/01/08 01:51:31;;;;;;;4.55;0.77;;;9.40;99.90;;;;;;5094552;28;20054;-88
2023/01/08 01:53:57;;;;;;;;;;;9.40;99.90;;;;;;5095617;28;20123;-88
2023/01/08 01:56:22;;;;;;;5.95;1.20;;;9.30;99.90;;;;;;5078046;28;19945;-88
2023/01/08 01:58:48;;;;;;;5.93;1.15;;;9.20;99.90;;;;;;5077959;28;20048;-88
2023/01/08 02:01:14;;;;;;;7.60;1.27;;;9.30;99.90;;;;;;5095189;28;20047;-88
2023/01/08 02:03:40;;;;;;;7.43;1.10;;;9.20;99.90;;;;;;5094079;28;20044;-88
2023/01/08 02:06:17;;;;;;;5.53;1.10;;;9.20;99.90;;;;;;5095035;28;20032;-87
2023/01/08 02:08:51;;;;;;;3.75;1.15;;;9.30;99.90;;;;;;5077121;28;20084;-87
2023/01/08 02:11:27;;;;;;;4.72;1.25;;;9.30;99.90;;;;;;5078501;28;20051;-87
2023/01/08 02:14:01;;;;;;;7.43;1.08;;;9.30;99.90;;;;;;5093558;28;20048;-87
2023/01/08 02:16:27;;;;;;;5.75;1.23;;;9.30;99.90;;;;;;5078148;28;20042;-87
2023/01/08 02:18:59;;;;;;;4.57;1.35;;;9.30;99.90;;;;;;5077377;28;20043;-87
2023/01/08 02:21:40;;;;;;;9.60;1.40;;;9.30;99.90;;;;;;5077384;28;20067;-87
2023/01/08 02:24:18;;;;;;;4.57;1.13;;;9.30;99.90;;;;;;5094703;28;20078;-87
2023/01/08 02:26:46;;;;;;;4.55;1.02;;;9.20;99.90;;;;;;5077127;28;20471;-87
2023/01/08 02:29:19;;;;;;;5.75;1.30;;;9.20;99.90;;;;;;5094526;28;20551;-87
2023/01/08 02:31:45;;;;;;;6.32;1.05;;;9.20;99.90;;;;;;5076811;28;20042;-87
2023/01/08 02:34:11;;;;;;;4.20;0.95;;;9.10;99.90;;;;;;5073405;28;20040;-87
2023/01/08 02:36:37;;;;;;;3.47;1.05;;;9.10;99.90;;;;;;5057537;28;20081;-87
2023/01/08 02:39:33;;;;;;;4.82;1.20;;;9.10;99.90;;;;;;5072073;28;20122;-87
2023/01/08 02:42:17;;;;;;;3.67;0.90;;;9.10;99.90;;;;;;5094472;28;20039;-87
2023/01/08 02:45:01;;;;;;;4.55;1.17;;;9.10;99.90;;;;;;5076609;28;20042;-88
2023/01/08 02:47:36;;;;;;;5.03;1.40;;;9.10;99.90;;;;;;5077439;28;20046;-87
2023/01/08 02:50:34;;;;;;;4.60;1.30;;;9.10;99.90;;;;;;5076597;28;20027;-87
2023/01/08 02:53:14;;;;;;;6.30;1.92;;;9.20;99.90;;;;;;5046378;28;20052;-87
2023/01/08 02:55:44;;;;;;;8.50;2.03;;;9.20;99.90;;;;;;5092907;28;20039;-87
2023/01/08 02:58:11;;;;;;;4.90;1.63;;;9.20;99.90;;;;;;5093980;28;20065;-87
2023/01/08 03:00:39;;;;;;;6.13;1.88;;;9.20;99.90;;;;;;5093629;28;20113;-87
2023/01/08 03:03:22;;;;;;;6.00;2.20;;;9.30;99.90;;;;;;5076040;28;20039;-87
2023/01/08 03:05:51;;;;;;;7.35;2.42;;;9.40;99.90;;;;;;5094340;28;20556;-87
2023/01/08 03:08:18;;;;;;;7.43;2.60;;;9.40;99.90;;;;;;5076692;28;20039;-86
2023/01/08 03:10:51;;;;;;;8.77;2.90;;;9.50;99.90;;;;;;5093010;28;20047;-86
2023/01/08 03:13:29;;;;;;;9.43;3.10;;;9.50;99.90;;;;;;5093785;28;20046;-87
2023/01/08 03:16:02;;;;;;;8.80;3.45;;;9.50;99.90;;;;;;5076001;28;20040;-88
2023/01/08 03:18:34;;;;;;;8.93;2.80;;;9.60;99.90;;;;;;5093786;28;20031;-88
2023/01/08 03:21:02;;;;;;;8.63;2.85;;;9.60;99.90;;;;;;5076072;28;20035;-88
2023/01/08 03:23:33;;;;;;;7.90;3.05;;;9.60;99.90;;;;;;5075963;28;20035;-90
2023/01/08 03:26:02;;;;;;;7.55;2.83;;;9.70;99.90;;;;;;5093796;28;20040;-88
2023/01/08 03:28:33;;;;;;;8.55;3.30;;;9.70;99.90;;;;;;5075925;28;20046;-88
2023/01/08 03:31:01;;;;;;;8.07;2.67;;;9.70;99.90;;;;;;5093506;28;20028;-88
2023/01/08 03:33:29;;;;;;;8.20;2.75;;;9.70;99.90;;;;;;5076563;28;20035;-88
2023/01/08 03:35:57;;;;;;;8.57;2.60;;;9.80;99.90;;;;;;5092043;28;20497;-89
2023/01/08 03:38:27;;;;;;;7.90;2.90;;;9.80;99.90;;;;;;5076736;28;20110;-89
2023/01/08 03:41:03;;;;;;;7.60;2.35;;;9.80;99.90;;;;;;5075548;28;20040;-88
2023/01/08 03:43:29;;;;;;;9.93;2.95;;;9.80;99.90;;;;;;5093437;28;20077;-88
2023/01/08 03:45:58;;;;;;;8.88;2.83;;;9.90;99.90;;;;;;5093346;28;20078;-89
2023/01/08 03:48:26;;;;;;;6.05;2.17;;;9.80;99.90;;;;;;5085708;28;20381;-89
2023/01/08 03:50:51;;;;;;;7.05;2.45;;;9.90;99.90;;;;;;5093369;28;20044;-89
2023/01/08 03:53:17;;;;;;;9.15;2.97;;;9.90;99.90;;;;;;5093064;28;20036;-89
2023/01/08 03:55:43;;;;;;;8.23;2.28;;;9.80;99.90;;;;;;5092478;28;20047;-89
2023/01/08 03:58:08;;;;;;;6.18;2.47;;;9.80;99.90;;;;;;5076557;28;20036;-89
2023/01/08 04:00:34;;;;;;;6.00;2.38;;;9.80;99.90;;;;;;5075078;28;20105;-89
2023/01/08 04:03:00;;;;;;;7.75;2.67;;;9.80;99.90;;;;;;5092998;28;20086;-89
2023/01/08 04:05:25;;;;;;;7.68;2.80;;;9.80;99.90;;;;;;5076315;28;20054;-89
2023/01/08 04:07:55;;;;;;;8.60;2.72;;;9.70;99.90;;;;;;5076335;28;20512;-89
2023/01/08 04:10:20;;;;;;;6.63;2.20;;;9.80;99.90;;;;;;5076295;28;20050;-88
2023/01/08 04:12:46;;;;;;;6.15;2.38;;;9.70;99.90;;;;;;5075455;28;20024;-89
2023/01/08 04:15:11;;;;;;;7.72;2.30;;;9.70;99.90;;;;;;5076118;28;20557;-89
2023/01/08 04:17:37;;;;;;;5.45;1.90;;;9.60;99.90;;;;;;5092397;28;20036;-88
2023/01/08 04:20:03;;;;;;;7.10;2.13;;;9.60;99.90;;;;;;5092976;28;20118;-89
2023/01/08 04:22:28;;;;;;;6.55;2.20;;;9.60;99.90;;;;;;5075949;28;20036;-88
2023/01/08 04:24:54;;;;;;;5.38;1.77;;;9.50;99.90;;;;;;5092295;28;20051;-89
2023/01/08 04:27:19;;;;;;;5.45;1.88;;;9.60;99.90;;;;;;5076425;28;20101;-89
2023/01/08 04:29:45;;;;;;;6.45;1.83;;;9.50;99.90;;;;;;5092454;28;20035;-88
2023/01/08 04:32:10;;;;;;;6.15;1.45;;;9.50;99.90;;;;;;5091933;28;20046;-88
2023/01/08 04:34:36;;;;;;;7.30;1.73;;;9.50;99.90;;;;;;5076012;28;20039;-89
2023/01/08 04:37:02;;;;;;;5.78;1.63;;;9.50;99.90;;;;;;5091911;28;20043;-89
2023/01/08 04:39:27;;;;;;;4.00;1.40;;;9.50;99.90;;;;;;5087656;28;20036;-89
2023/01/08 04:41:53;;;;;;;5.57;1.60;;;9.40;99.90;;;;;;5109865;28;20039;-89
2023/01/08 04:44:19;;;;;;;5.82;1.63;;;9.40;99.90;;;;;;5075151;28;20164;-89
2023/01/08 04:46:44;;;;;;;4.57;1.60;;;9.40;99.90;;;;;;5092994;28;20051;-89
2023/01/08 04:49:13;;;;;;;4.57;2.03;;;9.40;99.90;;;;;;5075024;28;20081;-88
2023/01/08 04:51:39;;;;;;;4.50;1.48;;;9.40;99.90;;;;;;5092943;28;20119;-89
2023/01/08 04:54:05;;;;;;;3.45;1.27;;;9.40;99.90;;;;;;5075717;28;20067;-89
2023/01/08 04:56:30;;;;;;;5.97;1.58;;;9.30;99.90;;;;;;5074798;28;20051;-89
2023/01/08 04:58:57;;;;;;;8.07;1.95;;;9.30;99.90;;;;;;5078640;28;20038;-88
2023/01/08 05:01:25;;;;;;;6.88;1.92;;;9.30;99.90;;;;;;5078881;28;20438;-89
2023/01/08 05:04:00;;;;;;;6.63;2.25;;;9.30;99.90;;;;;;5079179;28;20489;-89
2023/01/08 05:06:28;;;;;;;9.18;2.13;;;9.30;99.90;;;;;;5079416;28;20049;-89
2023/01/08 05:08:53;;;;;;;5.63;2.00;;;9.30;99.90;;;;;;5095259;28;20085;-88
2023/01/08 05:11:19;;;;;;;5.47;2.00;;;9.30;99.90;;;;;;5079287;28;20040;-89
2023/01/08 05:13:49;;;;;;;8.00;2.45;;;9.30;99.90;;;;;;5078163;28;20061;-88
2023/01/08 05:16:15;;;;;;;7.22;1.95;;;9.30;99.90;;;;;;5079228;28;20039;-89
2023/01/08 05:18:41;;;;;;;6.00;1.90;;;9.30;99.90;;;;;;5095949;28;20074;-89
2023/01/08 05:21:07;;;;;;;8.18;2.10;;;9.30;99.90;;;;;;5078532;28;20405;-88
2023/01/08 05:23:33;;;;;;;6.82;2.17;;;9.30;99.90;;;;;;5079073;28;20054;-88
2023/01/08 05:26:01;;;;;;;7.63;2.28;;;9.30;99.90;;;;;;5078619;28;20640;-89
2023/01/08 05:28:27;;;;;;;6.90;2.05;;;9.30;99.90;;;;;;5095462;28;20036;-88
2023/01/08 05:30:53;;;;;;;6.55;2.00;;;9.40;99.90;;;;;;5095779;28;20027;-88
2023/01/08 05:33:18;;;;;;;7.18;2.00;;;9.30;99.90;;;;;;5094450;28;20400;-88
2023/01/08 05:35:44;;;;;;;5.78;1.60;;;9.30;99.90;;;;;;5078775;28;20131;-88
2023/01/08 05:38:10;;;;;;;4.35;1.40;;;9.30;99.90;;;;;;5077617;28;20031;-88
2023/01/08 05:40:36;;;;;;;6.43;1.50;;;9.30;99.90;;;;;;5095611;28;20036;-88
2023/01/08 05:43:02;;;;;;;9.48;1.58;;;9.20;99.90;;;;;;5078436;28;20035;-88
2023/01/08 05:45:28;;;;;;;7.07;1.55;;;9.20;99.90;;;;;;5077966;28;20039;-89
2023/01/08 05:47:54;;;;;;;7.65;1.55;;;9.20;99.90;;;;;;5095957;28;20184;-88
2023/01/08 05:50:19;;;;;;;5.03;1.42;;;9.10;99.90;;;;;;5077481;28;20556;-88
2023/01/08 05:52:45;;;;;;;5.07;1.30;;;9.10;99.90;;;;;;5078503;28;20044;-88
2023/01/08 05:55:10;;;;;;;5.53;1.17;;;9.10;99.90;;;;;;5094727;28;20128;-88
2023/01/08 05:57:36;;;;;;;5.47;1.20;;;9.00;99.90;;;;;;5094608;28;20390;-89
2023/01/08 06:00:07;;;;;;;6.00;1.20;;;9.00;99.90;;;;;;5095258;28;20059;-88
2023/01/08 06:02:32;;;;;;;5.18;1.10;;;9.00;99.90;;;;;;5093437;28;20085;-89
2023/01/08 06:04:58;;;;;;;5.68;2.13;;;8.90;99.90;;;;;;5078163;28;20043;-88
2023/01/08 06:07:24;;;;;;;5.45;1.92;;;8.90;99.90;;;;;;5078326;28;20109;-88
2023/01/08 06:09:49;;;;;;;5.13;1.20;;;8.90;99.90;;;;;;5093812;28;20036;-88
2023/01/08 06:12:15;;;;;;;6.20;1.35;;;8.90;99.90;;;;;;5078048;28;20496;-88
2023/01/08 06:14:40;;;;;;;4.47;1.05;;;8.90;99.90;;;;;;5076780;28;20503;-88
2023/01/08 06:17:06;;;;;;;6.40;1.27;;;8.90;99.90;;;;;;5078044;28;20412;-88
2023/01/08 06:19:31;;;;;;;8.45;1.63;;;8.90;99.90;;;;;;5077432;28;20036;-89
2023/01/08 06:21:57;;;;;;;6.40;1.17;;;8.80;99.90;;;;;;5077529;28;20032;-89
2023/01/08 06:24:23;;;;;;;4.03;1.08;;;8.80;99.90;;;;;;5077512;28;20134;-88
2023/01/08 06:26:48;;;;;;;4.38;1.17;;;8.80;99.90;;;;;;5093803;28;20034;-88
2023/01/08 06:29:14;;;;;;;3.78;1.02;;;8.90;99.90;;;;;;5078266;28;20103;-89
2023/01/08 06:31:39;;;;;;;6.35;1.20;;;8.80;99.90;;;;;;5093355;28;20036;-89
2023/01/08 06:34:05;;;;;;;5.32;0.90;;;8.80;99.90;;;;;;5094367;28;20523;-89
2023/01/08 06:36:30;;;;;;;3.15;0.80;;;8.90;99.90;;;;;;5074679;28;20207;-89
2023/01/08 06:38:56;;;;;;;2.53;1.05;;;8.80;99.90;;;;;;5075601;28;20038;-90
2023/01/08 06:41:22;;;;;;;5.38;1.33;;;8.80;99.90;;;;;;5076448;28;20401;-89
2023/01/08 06:43:47;;;;;;;5.43;1.05;;;8.90;99.90;;;;;;5074407;28;20165;-89
2023/01/08 06:46:13;;;;;;;4.55;1.00;;;8.80;99.90;;;;;;5076670;28;20039;-89
2023/01/08 06:48:39;;;;;;;5.72;1.33;;;8.80;99.90;;;;;;5092551;28;20031;-88
2023/01/08 06:51:05;;;;;;;5.88;1.30;;;8.80;99.90;;;;;;5076657;28;20039;-89
2023/01/08 06:53:31;;;;;;;7.45;1.40;;;8.80;99.90;;;;;;5076091;28;20043;-88
2023/01/08 06:55:57;;;;;;;5.65;1.35;;;8.80;99.90;;;;;;5075921;28;20044;-88
2023/01/08 06:58:24;;;;;;;4.68;1.35;;;8.80;99.90;;;;;;5076456;28;20046;-89
2023/01/08 07:00:49;;;;;;;4.47;1.20;;;8.80;99.90;;;;;;5076846;28;20122;-89
2023/01/08 07:03:15;;;;;;;4.88;0.90;;;8.80;99.90;;;;;;5092491;28;20436;-89
2023/01/08 07:05:41;;;;;;;6.68;1.10;;;8.80;99.90;;;;;;5093851;28;20481;-89
2023/01/08 07:08:14;;;;;;;4.40;1.33;;;8.80;99.90;;;;;;5075892;28;20528;-89
2023/01/08 07:10:40;;;;;;;;;;;8.80;99.90;;;;;;5093476;28;20039;-86
2023/01/08 07:13:07;;;;;;;9.57;1.40;;;8.90;99.90;;;;;;5092889;28;19954;-89
2023/01/08 07:15:35;;;;;;;5.68;1.17;;;8.80;99.90;;;;;;5075211;28;20048;-89
2023/01/08 07:18:06;;;;;;;8.43;1.25;;;8.80;99.90;;;;;;5093731;28;20118;-89
2023/01/08 07:20:33;;;;;;;5.22;1.13;;;8.80;99.90;;;;;;5074724;28;20122;-89
2023/01/08 07:23:06;;;;;;;5.60;1.30;;;8.80;99.90;;;;;;5092119;28;20040;-88
2023/01/08 07:25:32;;;;;;;6.88;1.50;;;8.80;99.90;;;;;;5075942;28;20047;-89
2023/01/08 07:27:58;;;;;;;10.25;1.52;;;8.80;99.90;;;;;;5075638;28;20046;-89
2023/01/08 07:30:24;;;;;;;3.22;1.38;;;8.80;99.90;;;;;;5092710;28;20043;-88
2023/01/08 07:32:49;;;;;;;4.40;1.42;;;8.80;99.90;;;;;;5074613;28;20039;-88
2023/01/08 07:35:15;;;;;;;4.80;1.00;;;8.80;99.90;;;;;;5092415;28;20413;-88
2023/01/08 07:37:41;;;;;;;6.38;1.52;;;8.80;99.90;;;;;;5093173;28;20040;-88
2023/01/08 07:40:09;;;;;;;6.78;1.30;;;8.80;99.90;;;;;;5091748;28;20046;-89
2023/01/08 07:42:35;;;;;;;3.95;1.13;;;8.80;99.90;;;;;;5075855;28;20042;-89
2023/01/08 07:45:00;;;;;;;6.75;1.88;;;8.80;99.90;;;;;;5091892;28;20035;-89
2023/01/08 07:47:26;;;;;;;7.28;1.35;;;8.80;99.90;;;;;;5076376;28;20043;-89
2023/01/08 07:49:52;;;;;;;8.93;1.42;;;8.80;99.90;;;;;;5074719;28;20047;-88
2023/01/08 07:52:17;;;;;;;9.05;1.65;;;8.80;99.90;;;;;;5074864;28;20043;-88
2023/01/08 07:54:43;;;;;;;10.50;1.88;;;8.70;99.90;;;;;;5092342;28;20114;-88
2023/01/08 07:57:08;;;;;;;7.65;1.52;;;8.70;99.90;;;;;;5075408;28;20033;-88
2023/01/08 07:59:34;;;;;;;3.47;1.30;;;8.60;99.90;;;;;;5092959;28;20043;-89
2023/01/08 08:02:00;;;;;;;5.65;1.10;;;8.60;99.90;;;;;;5075664;28;20123;-89
2023/01/08 08:04:25;;;;;;;3.00;1.05;;;8.50;99.90;;;;;;5074160;28;20408;-89
2023/01/08 08:06:52;;;;;;;6.57;1.40;;;8.50;99.90;;;;;;5092582;28;20069;-89
2023/01/08 08:09:18;;;;;;;6.45;1.30;;;8.40;99.90;;;;;;5075748;28;20051;-89
2023/01/08 08:11:43;;;;;;;8.85;1.50;;;8.40;99.90;;;;;;5090315;28;20044;-88
2023/01/08 08:14:09;;;;;;;6.28;1.40;;;8.30;99.90;;;;;;5075356;28;20057;-88
2023/01/08 08:16:34;;;;;;;6.38;1.25;;;8.30;99.90;;;;;;5074778;28;20081;-89
2023/01/08 08:19:00;;;;;;;4.72;1.27;;;8.30;99.90;;;;;;5075379;28;20067;-88
2023/01/08 08:21:28;;;;;;;5.40;1.10;;;8.20;99.90;;;;;;5092341;28;20085;-89
2023/01/08 08:23:54;;;;;;;4.63;1.15;;;8.20;99.90;;;;;;5074367;28;20063;-89
2023/01/08 08:26:20;;;;;;;7.97;1.50;;;8.20;99.90;;;;;;5076052;28;20400;-89
2023/01/08 08:28:45;;;;;;;5.47;1.52;;;8.20;99.90;;;;;;5074836;28;20035;-89
2023/01/08 08:31:11;;;;;;;4.28;1.30;;;8.20;99.90;;;;;;5092041;28;20122;-89
2023/01/08 08:33:36;;;;;;;4.47;1.30;;;8.30;99.90;;;;;;5076947;28;20408;-89
2023/01/08 08:36:02;;;;;;;8.43;1.52;;;8.30;99.90;;;;;;5095671;28;20043;-89
2023/01/08 08:38:28;;;;;;;7.00;1.95;;;8.30;99.90;;;;;;5079648;28;20036;-89
2023/01/08 08:40:53;;;;;;;4.63;1.13;;;8.30;99.90;;;;;;5095376;28;20039;-89
2023/01/08 08:43:19;;;;;;;6.70;1.25;;;8.30;99.90;;;;;;5096051;28;20522;-88
2023/01/08 08:45:44;;;;;;;6.00;1.05;;;8.40;99.90;;;;;;5078306;28;20126;-89
2023/01/08 08:48:10;;;;;;;3.10;1.00;;;8.40;99.90;;;;;;5079239;28;20035;-88
2023/01/08 08:50:38;;;;;;;3.65;1.20;;;8.40;99.90;;;;;;5078219;28;20043;-89
2023/01/08 08:53:05;;;;;;;6.93;1.35;;;8.40;99.90;;;;;;5094630;28;20040;-88
2023/01/08 08:55:31;;;;;;;4.80;1.17;;;8.40;99.90;;;;;;5079204;28;20049;-88
2023/01/08 08:58:11;;;;;;;4.82;1.33;;;8.40;99.90;;;;;;5095033;28;20035;-89
2023/01/08 09:00:38;;;;;;;3.17;1.15;;;8.40;99.90;;;;;;5095864;28;20447;-88
2023/01/08 09:03:04;;;;;;;5.32;1.30;;;8.40;99.90;;;;;;5094495;28;20110;-88
2023/01/08 09:05:30;;;;;;;4.10;0.98;;;8.50;99.90;;;;;;5078936;28;20185;-89
2023/01/08 09:07:56;;;;;;;5.25;1.33;;;8.50;99.90;;;;;;5078972;28;20044;-89
2023/01/08 09:10:22;;;;;;;6.10;1.50;;;8.50;99.90;;;;;;5077522;28;20519;-89
2023/01/08 09:12:48;;;;;;;5.22;1.23;;;8.50;99.90;;;;;;5095265;28;20040;-89
2023/01/08 09:15:14;;;;;;;5.80;1.52;;;8.50;99.90;;;;;;5094528;28;20061;-89
2023/01/08 09:17:39;;;;;;;6.03;1.40;;;8.60;99.90;;;;;;5077843;28;20039;-89
2023/01/08 09:20:06;;;;;;;5.97;1.38;;;8.60;99.90;;;;;;5078891;28;20039;-89
2023/01/08 09:22:31;;;;;;;5.05;1.30;;;8.60;99.90;;;;;;5094842;28;20035;-89
2023/01/08 09:24:57;;;;;;;5.50;1.20;;;8.60;99.90;;;;;;5079041;28;20508;-88
2023/01/08 09:27:23;;;;;;;10.95;1.48;;;8.60;99.90;;;;;;5095023;28;20061;-89
2023/01/08 09:29:48;;;;;;;7.30;1.80;;;8.70;99.90;;;;;;5078649;28;20046;-89
2023/01/08 09:32:14;;;;;;;5.65;1.27;;;8.70;99.90;;;;;;5078335;28;20039;-89
2023/01/08 09:34:39;;;;;;;6.35;1.33;;;8.70;99.90;;;;;;5077871;28;20043;-88
2023/01/08 09:37:05;;;;;;;7.60;1.75;;;8.80;99.90;;;;;;5078740;28;20044;-89
2023/01/08 09:39:31;;;;;;;3.40;1.10;;;8.70;99.90;;;;;;5095009;28;20046;-88
2023/01/08 09:42:00;;;;;;;4.30;1.13;;;8.80;99.90;;;;;;5094973;28;20044;-88
2023/01/08 09:44:32;;;;;;;6.60;1.25;;;8.80;99.90;;;;;;5077956;28;20043;-88
2023/01/08 09:46:58;;;;;;;5.77;1.63;;;8.80;99.90;;;;;;5077851;28;20083;-89
2023/01/08 09:49:28;;;;;;;3.45;1.00;;;8.80;99.90;;;;;;5095903;28;20035;-88
2023/01/08 09:51:54;;;;;;;6.95;1.38;;;8.80;99.90;;;;;;5077820;28;20481;-89
2023/01/08 09:54:23;;;;;;;6.32;1.15;;;8.80;99.90;;;;;;5094316;28;20057;-89
2023/01/08 09:56:49;;;;;;;5.88;1.40;;;8.90;99.90;;;;;;5080356;28;20040;-89
2023/01/08 09:59:18;;;;;;;9.45;1.20;;;8.90;99.90;;;;;;5069249;28;20039;-88
2023/01/08 10:01:45;;;;;;;6.70;1.58;;;8.90;99.90;;;;;;5094437;28;20042;-89
2023/01/08 10:04:13;;;;;;;7.38;1.52;;;8.90;99.90;;;;;;5077582;28;20071;-88
2023/01/08 10:06:40;;;;;;;8.27;1.50;;;8.90;99.90;;;;;;5085862;28;20043;-89
2023/01/08 10:09:11;;;;;;;7.65;1.40;;;8.90;99.90;;;;;;5083075;28;20078;-89
2023/01/08 10:11:43;;;;;;;6.90;1.50;;;8.90;99.90;;;;;;5083947;28;20040;-89
2023/01/08 10:14:38;;;;;;;7.00;1.45;;;9.00;99.90;;;;;;5082903;28;20054;-89
2023/01/08 10:17:36;;;;;;;5.47;1.25;;;9.00;99.90;;;;;;5071195;28;20058;-89
2023/01/08 10:20:13;;;;;;;9.23;1.92;;;9.10;99.90;;;;;;5079067;28;20063;-86
2023/01/08 10:22:39;;;;;;;6.47;1.17;;;9.10;99.90;;;;;;5073902;28;20481;-89
2023/01/08 10:25:19;;;;;;;8.73;1.52;;;9.20;99.90;;;;;;5074922;28;20141;-89
2023/01/08 10:27:47;;;;;;;10.73;1.92;;;9.20;99.90;;;;;;5094271;28;20043;-89
2023/01/08 10:30:37;;;;;;;6.47;1.58;;;9.20;99.90;;;;;;5093266;28;20116;-89
2023/01/08 10:33:06;;;;;;;8.38;2.25;;;9.30;99.90;;;;;;5063829;28;20055;-90
2023/01/08 10:35:37;;;;;;;5.63;1.48;;;9.30;99.90;;;;;;5080301;28;20140;-89
2023/01/08 10:38:03;;;;;;;7.47;1.80;;;9.40;99.90;;;;;;5092704;28;20088;-89
2023/01/08 10:40:55;;;;;;;8.32;1.52;;;9.40;99.90;;;;;;5093336;28;20047;-89
2023/01/08 10:43:30;;;;;;;9.68;1.60;;;9.50;99.90;;;;;;5087567;28;20500;-89
2023/01/08 10:46:04;;;;;;;4.97;1.30;;;9.50;99.90;;;;;;5093743;28;20096;-90
2023/01/08 10:48:46;;;;;;;7.78;1.40;;;9.50;99.90;;;;;;5076302;28;20495;-90
2023/01/08 10:51:22;;;;;;;7.75;1.73;;;9.60;99.90;;;;;;5076424;28;20051;-90
2023/01/08 10:53:48;;;;;;;6.35;1.13;;;9.60;99.90;;;;;;5075864;28;20046;-89
2023/01/08 10:56:23;;;;;;;8.90;1.50;;;9.70;99.90;;;;;;5086323;28;20036;-89
2023/01/08 10:58:49;;;;;;;6.45;1.48;;;9.70;99.90;;;;;;5085022;28;20046;-89
2023/01/08 11:01:23;;;;;;;8.05;1.38;;;9.70;99.90;;;;;;5091491;28;20047;-89
2023/01/08 11:04:00;;;;;;;8.68;1.90;;;9.70;99.90;;;;;;5075913;28;20089;-89
2023/01/08 11:06:35;;;;;;;9.60;2.38;;;9.80;99.90;;;;;;5075929;28;20046;-89
2023/01/08 11:09:24;;;;;;;10.48;1.45;;;9.80;99.90;;;;;;5076684;28;20043;-90
2023/01/08 11:11:50;;;;;;;9.18;1.40;;;9.90;99.90;;;;;;5075493;28;20043;-89
2023/01/08 11:14:25;;;;;;;6.88;1.80;;;10.00;99.90;;;;;;5092198;28;20044;-89
2023/01/08 11:16:52;;;;;;;11.27;2.08;;;10.10;99.90;;;;;;5093571;28;20050;-90
2023/01/08 11:19:28;;;;;;;11.77;1.52;;;10.00;99.90;;;;;;5087137;28;20028;-90
2023/01/08 11:22:03;;;;;;;8.77;1.40;;;10.10;99.90;;;;;;5064984;28;20035;-89
2023/01/08 11:24:34;;;;;;;13.88;1.88;;;10.20;99.90;;;;;;5065075;28;20113;-90
2023/01/08 11:27:03;;;;;;;15.00;2.70;;;10.20;99.90;;;;;;5082251;28;20047;-89
2023/01/08 11:29:40;;;;;;;10.18;1.50;;;10.30;99.90;;;;;;5081984;28;20076;-90
2023/01/08 11:32:29;;;;;;;7.40;1.70;;;10.30;99.90;;;;;;5065483;28;20412;-87
2023/01/08 11:34:57;;;;;;;7.55;1.42;;;10.40;99.90;;;;;;5066552;28;20680;-88
2023/01/08 11:37:26;;;;;;;10.35;1.50;;;10.30;99.90;;;;;;5083479;28;20112;-89
2023/01/08 11:39:53;;;;;;;9.68;1.88;;;10.40;99.90;;;;;;5064601;28;20039;-90
2023/01/08 11:42:31;;;;;;;8.18;1.58;;;10.50;99.90;;;;;;5082477;28;20069;-90
2023/01/08 11:45:12;;;;;;;8.60;1.52;;;10.40;99.90;;;;;;5066853;28;20066;-90
2023/01/08 11:47:46;;;;;;;10.07;1.73;;;10.40;99.90;;;;;;5083256;28;20394;-90
2023/01/08 11:50:28;;;;;;;8.98;1.50;;;10.30;99.90;;;;;;5070955;28;20047;-90
2023/01/08 11:53:18;;;;;;;7.97;1.35;;;10.50;99.90;;;;;;5091725;28;20039;-91
2023/01/08 11:56:06;;;;;;;10.13;2.08;;;10.50;99.90;;;;;;5075272;28;20036;-90
2023/01/08 11:58:55;;;;;;;8.43;1.60;;;10.60;99.90;;;;;;5092878;28;20039;-90
2023/01/08 12:01:59;;;;;;;11.00;1.58;;;10.60;99.90;;;;;;5075653;28;20075;-90
2023/01/08 12:04:52;;;;;;;8.38;2.05;;;10.70;99.90;;;;;;5075210;28;20509;-90
2023/01/08 12:07:22;;;;;;;8.35;2.28;;;10.60;99.90;;;;;;5077820;28;20040;-91
2023/01/08 12:09:59;;;;;;;11.90;2.28;;;10.90;99.90;;;;;;5095636;28;20043;-90
2023/01/08 12:12:46;;;;;;;8.40;1.60;;;10.90;99.90;;;;;;5096362;28;20039;-91
2023/01/08 12:15:50;;;;;;;11.35;1.80;;;11.30;99.90;;;;;;5079887;28;20051;-90
2023/01/08 12:18:22;;;;;;;10.15;1.75;;;11.60;99.90;;;;;;5082613;28;20118;-90
2023/01/08 12:21:17;;;;;;;7.60;1.67;;;11.40;99.90;;;;;;5112600;28;20476;-90
2023/01/08 12:23:58;;;;;;;9.30;1.58;;;11.20;99.90;;;;;;5089294;28;20277;-91
2023/01/08 12:26:41;;;;;;;11.13;1.92;;;10.90;99.90;;;;;;5079819;28;20078;-90
2023/01/08 12:29:48;;;;;;;9.32;1.70;;;10.90;99.90;;;;;;5095474;28;20038;-91
2023/01/08 12:32:14;;;;;;;10.23;2.70;;;11.40;99.90;;;;;;5014755;28;20045;-91
2023/01/08 12:34:49;;;;;;;11.90;2.03;;;12.80;99.90;;;;;;5064648;28;20051;-91
2023/01/08 12:37:26;;;;;;;12.07;2.70;;;13.80;99.90;;;;;;5079320;28;20038;-91
2023/01/08 12:40:12;;;;;;;8.57;1.88;;;14.80;93.00;;;;;;5071497;28;20051;-92
2023/01/08 12:42:43;;;;;;;10.55;3.13;;;15.20;90.30;;;;;;5079175;28;20047;-91
2023/01/08 12:45:25;;;;;;;9.45;2.42;;;15.80;87.70;;;;;;5078367;28;20035;-92
2023/01/08 12:47:57;;;;;;;12.43;2.58;;;16.70;84.80;;;;;;5078867;28;20528;-92
2023/01/08 12:50:33;;;;;;;10.27;2.40;;;17.50;78.60;;;;;;5095473;28;20042;-91
2023/01/08 12:53:39;;;;;;;9.38;2.35;;;17.90;74.10;;;;;;5078436;28;20043;-92
2023/01/08 12:56:14;;;;;;;10.68;2.47;;;18.60;72.90;;;;;;5077970;28;20047;-92
2023/01/08 12:59:08;;;;;;;10.68;2.30;;;19.50;70.70;;;;;;5078117;28;20047;-92
2023/01/08 13:01:42;;;;;;;9.77;2.58;;;19.70;67.40;;;;;;5078600;28;20032;-92
2023/01/08 13:04:09;;;;;;;10.75;2.25;;;20.00;66.40;;;;;;5077611;28;20467;-92
2023/01/08 13:06:35;;;;;;;8.35;2.42;;;20.20;65.40;;;;;;5078815;28;20406;-92